Cravinhos, Brazil
Current Conditions -  °F | °C
As of 8:07 AM on Wednesday 26 Nov 2014 (Local Time) from SBRP Reporting Station
Moderate Rain Moderate Rain  
Wind Chill: 72°   Ceiling: 2000
Heat Index: 72°   Visibility: 0.93mi
Dew Point: 68°   Wind: 7mph
Humidity: 88%   Direction: 340°NNW
Pressure: 29.85"   Gusts: NA
Location:  21.34°S, 47.73°W
Report Text: SBRP 261007Z 34006KT 1500 RA SCT012 BKN020 22/20 Q1011
Loading
Personal Weather Stations






























Interactive Weather Map New forecast layout! Learn more

10-Day Weather Forecast

Advertisements
Track Severe Weather on mobile